sensor_id;sensor_type;location;lat;lon;timestamp;temperature;humidity
23323;DHT22;11833;52.554;13.554;2024-03-17T00:01:50;4.80;99.90
23323;DHT22;11833;52.554;13.554;2024-03-17T00:04:15;4.80;99.90
23323;DHT22;11833;52.554;13.554;2024-03-17T00:06:41;4.70;99.90
23323;DHT22;11833;52.554;13.554;2024-03-17T00:09:08;4.90;99.90
23323;DHT22;11833;52.554;13.554;2024-03-17T00:11:37;5.10;99.90
23323;DHT22;11833;52.554;13.554;2024-03-17T00:14:02;4.90;99.90
23323;DHT22;11833;52.554;13.554;2024-03-17T00:16:31;4.70;99.90
23323;DHT22;11833;52.554;13.554;2024-03-17T00:18:56;4.70;99.90
23323;DHT22;11833;52.554;13.554;2024-03-17T00:21:22;4.60;99.90
23323;DHT22;11833;52.554;13.554;2024-03-17T00:23:48;4.60;99.90
23323;DHT22;11833;52.554;13.554;2024-03-17T00:26:17;4.60;99.90
23323;DHT22;11833;52.554;13.554;2024-03-17T00:28:44;4.60;99.90
23323;DHT22;11833;52.554;13.554;2024-03-17T00:31:14;4.60;99.90
23323;DHT22;11833;52.554;13.554;2024-03-17T00:33:40;4.60;99.90
23323;DHT22;11833;52.554;13.554;2024-03-17T00:36:06;4.60;99.90
23323;DHT22;11833;52.554;13.554;2024-03-17T00:38:32;4.60;99.90
23323;DHT22;11833;52.554;13.554;2024-03-17T00:40:59;4.50;99.90
23323;DHT22;11833;52.554;13.554;2024-03-17T00:43:25;4.40;99.90
23323;DHT22;11833;52.554;13.554;2024-03-17T00:45:53;4.50;99.90
23323;DHT22;11833;52.554;13.554;2024-03-17T00:48:19;4.40;99.90
23323;DHT22;11833;52.554;13.554;2024-03-17T00:50:45;4.40;99.90
23323;DHT22;11833;52.554;13.554;2024-03-17T00:53:11;4.50;99.90
23323;DHT22;11833;52.554;13.554;2024-03-17T00:55:37;4.40;99.90
23323;DHT22;11833;52.554;13.554;2024-03-17T00:58:03;4.30;99.90
23323;DHT22;11833;52.554;13.554;2024-03-17T01:00:29;4.30;99.90
23323;DHT22;11833;52.554;13.554;2024-03-17T01:02:56;4.40;99.90
23323;DHT22;11833;52.554;13.554;2024-03-17T01:05:21;4.40;99.90
23323;DHT22;11833;52.554;13.554;2024-03-17T01:07:47;4.40;99.90
23323;DHT22;11833;52.554;13.554;2024-03-17T01:10:15;4.40;99.90
23323;DHT22;11833;52.554;13.554;2024-03-17T01:12:41;4.50;99.90
23323;DHT22;11833;52.554;13.554;2024-03-17T01:15:07;4.40;99.90
23323;DHT22;11833;52.554;13.554;2024-03-17T01:17:33;4.50;99.90
23323;DHT22;11833;52.554;13.554;2024-03-17T01:19:59;4.40;99.90
23323;DHT22;11833;52.554;13.554;2024-03-17T01:22:25;4.30;99.90
23323;DHT22;11833;52.554;13.554;2024-03-17T01:24:51;4.40;99.90
23323;DHT22;11833;52.554;13.554;2024-03-17T01:27:16;4.30;99.90
23323;DHT22;11833;52.554;13.554;2024-03-17T01:29:42;4.30;99.90
23323;DHT22;11833;52.554;13.554;2024-03-17T01:32:09;4.40;99.90
23323;DHT22;11833;52.554;13.554;2024-03-17T01:34:36;4.40;99.90
23323;DHT22;11833;52.554;13.554;2024-03-17T01:37:04;4.50;99.90
23323;DHT22;11833;52.554;13.554;2024-03-17T01:39:31;4.50;99.90
23323;DHT22;11833;52.554;13.554;2024-03-17T01:41:58;4.60;99.90
23323;DHT22;11833;52.554;13.554;2024-03-17T01:44:28;4.50;99.90
23323;DHT22;11833;52.554;13.554;2024-03-17T01:46:55;4.40;99.90
23323;DHT22;11833;52.554;13.554;2024-03-17T01:49:22;4.40;99.90
23323;DHT22;11833;52.554;13.554;2024-03-17T01:51:48;4.50;99.90
23323;DHT22;11833;52.554;13.554;2024-03-17T01:54:15;4.40;99.90
23323;DHT22;11833;52.554;13.554;2024-03-17T01:56:43;4.30;99.90
23323;DHT22;11833;52.554;13.554;2024-03-17T01:59:10;4.30;99.90
23323;DHT22;11833;52.554;13.554;2024-03-17T02:01:38;4.20;99.90
23323;DHT22;11833;52.554;13.554;2024-03-17T02:04:05;4.40;99.90
23323;DHT22;11833;52.554;13.554;2024-03-17T02:06:31;4.40;99.90
23323;DHT22;11833;52.554;13.554;2024-03-17T02:08:58;4.30;99.90
23323;DHT22;11833;52.554;13.554;2024-03-17T02:11:28;4.30;99.90
23323;DHT22;11833;52.554;13.554;2024-03-17T02:13:56;4.30;99.90
23323;DHT22;11833;52.554;13.554;2024-03-17T02:16:23;4.40;99.90
23323;DHT22;11833;52.554;13.554;2024-03-17T02:18:49;4.30;99.90
23323;DHT22;11833;52.554;13.554;2024-03-17T02:21:20;4.20;99.90
23323;DHT22;11833;52.554;13.554;2024-03-17T02:23:48;4.30;99.90
23323;DHT22;11833;52.554;13.554;2024-03-17T02:26:14;4.40;99.90
23323;DHT22;11833;52.554;13.554;2024-03-17T02:28:44;4.40;99.90
23323;DHT22;11833;52.554;13.554;2024-03-17T02:31:11;4.30;99.90
23323;DHT22;11833;52.554;13.554;2024-03-17T02:33:38;4.20;99.90
23323;DHT22;11833;52.554;13.554;2024-03-17T02:36:05;4.20;99.90
23323;DHT22;11833;52.554;13.554;2024-03-17T02:38:34;4.20;99.90
23323;DHT22;11833;52.554;13.554;2024-03-17T02:41:19;4.10;99.90
23323;DHT22;11833;52.554;13.554;2024-03-17T02:43:45;4.10;99.90
23323;DHT22;11833;52.554;13.554;2024-03-17T02:46:12;4.00;99.90
23323;DHT22;11833;52.554;13.554;2024-03-17T02:48:40;4.00;99.90
23323;DHT22;11833;52.554;13.554;2024-03-17T02:51:17;3.90;99.90
23323;DHT22;11833;52.554;13.554;2024-03-17T02:53:46;3.90;99.90
23323;DHT22;11833;52.554;13.554;2024-03-17T02:56:16;3.90;99.90
23323;DHT22;11833;52.554;13.554;2024-03-17T02:58:44;3.90;99.90
23323;DHT22;11833;52.554;13.554;2024-03-17T03:01:14;3.90;99.90
23323;DHT22;11833;52.554;13.554;2024-03-17T03:03:41;3.80;99.90
23323;DHT22;11833;52.554;13.554;2024-03-17T03:06:07;3.80;99.90
23323;DHT22;11833;52.554;13.554;2024-03-17T03:08:41;3.80;99.90
23323;DHT22;11833;52.554;13.554;2024-03-17T03:11:09;3.80;99.90
23323;DHT22;11833;52.554;13.554;2024-03-17T03:13:39;3.90;99.90
23323;DHT22;11833;52.554;13.554;2024-03-17T03:16:10;3.80;99.90
23323;DHT22;11833;52.554;13.554;2024-03-17T03:18:37;3.70;99.90
23323;DHT22;11833;52.554;13.554;2024-03-17T03:21:07;3.70;99.90
23323;DHT22;11833;52.554;13.554;2024-03-17T03:23:33;3.70;99.90
23323;DHT22;11833;52.554;13.554;2024-03-17T03:26:00;3.60;99.90
23323;DHT22;11833;52.554;13.554;2024-03-17T03:28:31;3.50;99.90
23323;DHT22;11833;52.554;13.554;2024-03-17T03:31:01;3.70;99.90
23323;DHT22;11833;52.554;13.554;2024-03-17T03:33:27;3.60;99.90
23323;DHT22;11833;52.554;13.554;2024-03-17T03:35:53;3.60;99.90
23323;DHT22;11833;52.554;13.554;2024-03-17T03:38:20;3.60;99.90
23323;DHT22;11833;52.554;13.554;2024-03-17T03:40:47;3.40;99.90
23323;DHT22;11833;52.554;13.554;2024-03-17T03:43:15;3.40;99.90
23323;DHT22;11833;52.554;13.554;2024-03-17T03:45:41;3.40;99.90
23323;DHT22;11833;52.554;13.554;2024-03-17T03:48:08;3.40;99.90
23323;DHT22;11833;52.554;13.554;2024-03-17T03:50:34;3.50;99.90
23323;DHT22;11833;52.554;13.554;2024-03-17T03:53:00;3.40;99.90
23323;DHT22;11833;52.554;13.554;2024-03-17T03:55:26;3.30;99.90
23323;DHT22;11833;52.554;13.554;2024-03-17T03:57:52;3.30;99.90
23323;DHT22;11833;52.554;13.554;2024-03-17T04:00:21;3.30;99.90
23323;DHT22;11833;52.554;13.554;2024-03-17T04:02:51;3.20;99.90
23323;DHT22;11833;52.554;13.554;2024-03-17T04:05:18;3.20;99.90
23323;DHT22;11833;52.554;13.554;2024-03-17T04:07:46;3.20;99.90
23323;DHT22;11833;52.554;13.554;2024-03-17T04:10:13;3.10;99.90
23323;DHT22;11833;52.554;13.554;2024-03-17T04:12:39;3.10;99.90
23323;DHT22;11833;52.554;13.554;2024-03-17T04:15:05;3.20;99.90
23323;DHT22;11833;52.554;13.554;2024-03-17T04:17:32;3.10;99.90
23323;DHT22;11833;52.554;13.554;2024-03-17T04:19:58;3.00;99.90
23323;DHT22;11833;52.554;13.554;2024-03-17T04:22:24;2.90;99.90
23323;DHT22;11833;52.554;13.554;2024-03-17T04:24:51;3.00;99.90
23323;DHT22;11833;52.554;13.554;2024-03-17T04:27:20;2.90;99.90
23323;DHT22;11833;52.554;13.554;2024-03-17T04:29:53;2.90;99.90
23323;DHT22;11833;52.554;13.554;2024-03-17T04:32:20;2.90;99.90
23323;DHT22;11833;52.554;13.554;2024-03-17T04:34:47;2.80;99.90
23323;DHT22;11833;52.554;13.554;2024-03-17T04:37:13;2.90;99.90
23323;DHT22;11833;52.554;13.554;2024-03-17T04:39:39;2.90;99.90
23323;DHT22;11833;52.554;13.554;2024-03-17T04:42:12;2.90;99.90
23323;DHT22;11833;52.554;13.554;2024-03-17T04:44:40;2.80;99.90
23323;DHT22;11833;52.554;13.554;2024-03-17T04:47:06;2.80;99.90
23323;DHT22;11833;52.554;13.554;2024-03-17T04:49:39;2.80;99.90
23323;DHT22;11833;52.554;13.554;2024-03-17T04:52:06;2.80;99.90
23323;DHT22;11833;52.554;13.554;2024-03-17T04:54:33;2.70;99.90
23323;DHT22;11833;52.554;13.554;2024-03-17T04:56:59;2.80;99.90
23323;DHT22;11833;52.554;13.554;2024-03-17T04:59:25;2.70;99.90
23323;DHT22;11833;52.554;13.554;2024-03-17T05:01:53;2.90;99.90
23323;DHT22;11833;52.554;13.554;2024-03-17T05:04:18;2.90;99.90
23323;DHT22;11833;52.554;13.554;2024-03-17T05:06:44;2.90;99.90
23323;DHT22;11833;52.554;13.554;2024-03-17T05:09:13;2.80;99.90
23323;DHT22;11833;52.554;13.554;2024-03-17T05:11:39;2.80;99.90
23323;DHT22;11833;52.554;13.554;2024-03-17T05:14:05;2.80;99.90
23323;DHT22;11833;52.554;13.554;2024-03-17T05:16:31;2.80;99.90
23323;DHT22;11833;52.554;13.554;2024-03-17T05:18:57;2.80;99.90
23323;DHT22;11833;52.554;13.554;2024-03-17T05:21:23;2.80;99.90
23323;DHT22;11833;52.554;13.554;2024-03-17T05:23:49;2.70;99.90
23323;DHT22;11833;52.554;13.554;2024-03-17T05:26:15;2.60;99.90
23323;DHT22;11833;52.554;13.554;2024-03-17T05:28:41;2.70;99.90
23323;DHT22;11833;52.554;13.554;2024-03-17T05:31:06;2.70;99.90
23323;DHT22;11833;52.554;13.554;2024-03-17T05:33:32;2.70;99.90
23323;DHT22;11833;52.554;13.554;2024-03-17T05:35:59;2.70;99.90
23323;DHT22;11833;52.554;13.554;2024-03-17T05:38:29;2.80;99.90
23323;DHT22;11833;52.554;13.554;2024-03-17T05:41:02;2.90;99.90
23323;DHT22;11833;52.554;13.554;2024-03-17T05:43:31;2.80;99.90
23323;DHT22;11833;52.554;13.554;2024-03-17T05:46:10;2.80;99.90
23323;DHT22;11833;52.554;13.554;2024-03-17T05:48:38;2.80;99.90
23323;DHT22;11833;52.554;13.554;2024-03-17T05:51:10;2.70;99.90
23323;DHT22;11833;52.554;13.554;2024-03-17T05:53:37;2.70;99.90
23323;DHT22;11833;52.554;13.554;2024-03-17T05:56:10;2.80;99.90
23323;DHT22;11833;52.554;13.554;2024-03-17T05:58:39;2.80;99.90
23323;DHT22;11833;52.554;13.554;2024-03-17T06:01:05;2.80;99.90
23323;DHT22;11833;52.554;13.554;2024-03-17T06:03:35;2.80;99.90
23323;DHT22;11833;52.554;13.554;2024-03-17T06:06:04;2.80;99.90
23323;DHT22;11833;52.554;13.554;2024-03-17T06:08:33;2.80;99.90
23323;DHT22;11833;52.554;13.554;2024-03-17T06:10:58;2.80;99.90
23323;DHT22;11833;52.554;13.554;2024-03-17T06:13:28;2.80;99.90
23323;DHT22;11833;52.554;13.554;2024-03-17T06:15:54;3.00;99.90
23323;DHT22;11833;52.554;13.554;2024-03-17T06:18:20;2.90;99.90
23323;DHT22;11833;52.554;13.554;2024-03-17T06:20:47;2.80;99.90
23323;DHT22;11833;52.554;13.554;2024-03-17T06:23:14;2.90;99.90
23323;DHT22;11833;52.554;13.554;2024-03-17T06:25:42;2.90;99.90
23323;DHT22;11833;52.554;13.554;2024-03-17T06:28:13;3.00;99.90
23323;DHT22;11833;52.554;13.554;2024-03-17T06:30:44;3.10;99.90
23323;DHT22;11833;52.554;13.554;2024-03-17T06:33:13;3.10;99.90
23323;DHT22;11833;52.554;13.554;2024-03-17T06:35:40;3.20;99.90
23323;DHT22;11833;52.554;13.554;2024-03-17T06:38:07;3.30;99.90
23323;DHT22;11833;52.554;13.554;2024-03-17T06:40:38;3.30;99.90
23323;DHT22;11833;52.554;13.554;2024-03-17T06:43:04;3.40;99.90
23323;DHT22;11833;52.554;13.554;2024-03-17T06:45:30;3.50;99.90
23323;DHT22;11833;52.554;13.554;2024-03-17T06:47:56;3.50;99.90
23323;DHT22;11833;52.554;13.554;2024-03-17T06:50:22;3.60;99.90
23323;DHT22;11833;52.554;13.554;2024-03-17T06:52:48;3.60;99.90
23323;DHT22;11833;52.554;13.554;2024-03-17T06:55:14;3.70;99.90
23323;DHT22;11833;52.554;13.554;2024-03-17T06:57:44;3.80;99.90
23323;DHT22;11833;52.554;13.554;2024-03-17T07:00:13;3.80;99.90
23323;DHT22;11833;52.554;13.554;2024-03-17T07:02:49;3.80;99.90
23323;DHT22;11833;52.554;13.554;2024-03-17T07:05:15;3.90;99.90
23323;DHT22;11833;52.554;13.554;2024-03-17T07:07:44;3.90;99.90
23323;DHT22;11833;52.554;13.554;2024-03-17T07:10:11;3.80;99.90
23323;DHT22;11833;52.554;13.554;2024-03-17T07:12:41;3.90;99.90
23323;DHT22;11833;52.554;13.554;2024-03-17T07:15:07;3.90;99.90
23323;DHT22;11833;52.554;13.554;2024-03-17T07:17:33;3.90;99.90
23323;DHT22;11833;52.554;13.554;2024-03-17T07:19:59;4.00;99.90
23323;DHT22;11833;52.554;13.554;2024-03-17T07:22:25;4.10;99.90
23323;DHT22;11833;52.554;13.554;2024-03-17T07:24:54;4.40;99.90
23323;DHT22;11833;52.554;13.554;2024-03-17T07:27:29;4.40;99.90
23323;DHT22;11833;52.554;13.554;2024-03-17T07:29:55;4.50;99.90
23323;DHT22;11833;52.554;13.554;2024-03-17T07:32:21;4.50;99.90
23323;DHT22;11833;52.554;13.554;2024-03-17T07:34:48;4.70;99.90
23323;DHT22;11833;52.554;13.554;2024-03-17T07:37:15;4.80;99.90
23323;DHT22;11833;52.554;13.554;2024-03-17T07:39:41;5.00;99.90
23323;DHT22;11833;52.554;13.554;2024-03-17T07:42:06;5.00;99.90
23323;DHT22;11833;52.554;13.554;2024-03-17T07:44:32;5.20;99.90
23323;DHT22;11833;52.554;13.554;2024-03-17T07:47:01;5.20;99.90
23323;DHT22;11833;52.554;13.554;2024-03-17T07:49:29;5.10;99.90
23323;DHT22;11833;52.554;13.554;2024-03-17T07:51:58;5.00;99.90
23323;DHT22;11833;52.554;13.554;2024-03-17T07:54:24;5.20;99.90
23323;DHT22;11833;52.554;13.554;2024-03-17T07:56:51;5.30;99.90
23323;DHT22;11833;52.554;13.554;2024-03-17T07:59:17;5.30;99.90
23323;DHT22;11833;52.554;13.554;2024-03-17T08:01:46;5.30;99.90
23323;DHT22;11833;52.554;13.554;2024-03-17T08:04:13;5.50;99.90
23323;DHT22;11833;52.554;13.554;2024-03-17T08:06:39;5.50;99.90
23323;DHT22;11833;52.554;13.554;2024-03-17T08:09:09;5.60;99.90
23323;DHT22;11833;52.554;13.554;2024-03-17T08:11:38;5.70;99.90
23323;DHT22;11833;52.554;13.554;2024-03-17T08:14:09;5.60;99.90
23323;DHT22;11833;52.554;13.554;2024-03-17T08:16:35;5.80;99.90
23323;DHT22;11833;52.554;13.554;2024-03-17T08:19:01;6.00;99.90
23323;DHT22;11833;52.554;13.554;2024-03-17T08:21:27;6.20;99.90
23323;DHT22;11833;52.554;13.554;2024-03-17T08:23:54;6.60;99.90
23323;DHT22;11833;52.554;13.554;2024-03-17T08:26:20;6.70;99.90
23323;DHT22;11833;52.554;13.554;2024-03-17T08:28:45;6.60;99.90
23323;DHT22;11833;52.554;13.554;2024-03-17T08:31:12;6.80;99.90
23323;DHT22;11833;52.554;13.554;2024-03-17T08:33:38;6.80;99.60
23323;DHT22;11833;52.554;13.554;2024-03-17T08:36:05;6.60;99.30
23323;DHT22;11833;52.554;13.554;2024-03-17T08:38:35;6.90;99.90
23323;DHT22;11833;52.554;13.554;2024-03-17T08:41:06;7.20;99.40
23323;DHT22;11833;52.554;13.554;2024-03-17T08:43:34;7.20;98.90
23323;DHT22;11833;52.554;13.554;2024-03-17T08:46:04;7.20;97.90
23323;DHT22;11833;52.554;13.554;2024-03-17T08:48:33;6.80;97.50
23323;DHT22;11833;52.554;13.554;2024-03-17T08:51:01;6.60;96.70
23323;DHT22;11833;52.554;13.554;2024-03-17T08:53:27;6.80;98.60
23323;DHT22;11833;52.554;13.554;2024-03-17T08:55:54;6.80;96.40
23323;DHT22;11833;52.554;13.554;2024-03-17T08:58:21;6.40;96.20
23323;DHT22;11833;52.554;13.554;2024-03-17T09:00:47;6.80;99.90
23323;DHT22;11833;52.554;13.554;2024-03-17T09:03:14;7.10;96.10
23323;DHT22;11833;52.554;13.554;2024-03-17T09:05:44;7.40;97.10
23323;DHT22;11833;52.554;13.554;2024-03-17T09:08:18;7.70;99.90
23323;DHT22;11833;52.554;13.554;2024-03-17T09:10:46;8.00;99.50
23323;DHT22;11833;52.554;13.554;2024-03-17T09:13:17;7.90;96.70
23323;DHT22;11833;52.554;13.554;2024-03-17T09:16:00;7.20;92.90
23323;DHT22;11833;52.554;13.554;2024-03-17T09:18:26;7.20;95.80
23323;DHT22;11833;52.554;13.554;2024-03-17T09:21:05;7.60;94.20
23323;DHT22;11833;52.554;13.554;2024-03-17T09:23:36;7.90;95.70
23323;DHT22;11833;52.554;13.554;2024-03-17T09:26:10;8.10;98.90
23323;DHT22;11833;52.554;13.554;2024-03-17T09:28:41;7.80;92.60
23323;DHT22;11833;52.554;13.554;2024-03-17T09:31:07;7.50;93.80
23323;DHT22;11833;52.554;13.554;2024-03-17T09:33:34;7.60;95.60
23323;DHT22;11833;52.554;13.554;2024-03-17T09:36:05;8.20;99.90
23323;DHT22;11833;52.554;13.554;2024-03-17T09:38:32;7.70;90.90
23323;DHT22;11833;52.554;13.554;2024-03-17T09:41:00;7.20;93.20
23323;DHT22;11833;52.554;13.554;2024-03-17T09:43:34;7.10;93.70
23323;DHT22;11833;52.554;13.554;2024-03-17T09:46:04;6.90;95.10
23323;DHT22;11833;52.554;13.554;2024-03-17T09:48:31;6.90;94.30
23323;DHT22;11833;52.554;13.554;2024-03-17T09:51:01;7.40;93.30
23323;DHT22;11833;52.554;13.554;2024-03-17T09:53:29;8.20;96.00
23323;DHT22;11833;52.554;13.554;2024-03-17T09:56:00;8.70;91.50
23323;DHT22;11833;52.554;13.554;2024-03-17T09:58:28;7.90;89.50
23323;DHT22;11833;52.554;13.554;2024-03-17T10:00:54;8.00;99.90
23323;DHT22;11833;52.554;13.554;2024-03-17T10:03:40;8.30;97.30
23323;DHT22;11833;52.554;13.554;2024-03-17T10:06:21;8.80;92.60
23323;DHT22;11833;52.554;13.554;2024-03-17T10:08:52;8.70;91.90
23323;DHT22;11833;52.554;13.554;2024-03-17T10:11:20;8.30;90.90
23323;DHT22;11833;52.554;13.554;2024-03-17T10:14:00;9.10;96.60
23323;DHT22;11833;52.554;13.554;2024-03-17T10:16:27;9.70;90.80
23323;DHT22;11833;52.554;13.554;2024-03-17T10:19:13;9.80;84.00
23323;DHT22;11833;52.554;13.554;2024-03-17T10:21:44;9.60;87.60
23323;DHT22;11833;52.554;13.554;2024-03-17T10:24:21;9.70;89.20
23323;DHT22;11833;52.554;13.554;2024-03-17T10:26:49;9.90;90.80
23323;DHT22;11833;52.554;13.554;2024-03-17T10:29:23;9.90;90.00
23323;DHT22;11833;52.554;13.554;2024-03-17T10:31:57;10.20;85.60
23323;DHT22;11833;52.554;13.554;2024-03-17T10:34:28;10.60;91.90
23323;DHT22;11833;52.554;13.554;2024-03-17T10:39:46;9.50;89.40
23323;DHT22;11833;52.554;13.554;2024-03-17T10:42:24;8.80;87.70
23323;DHT22;11833;52.554;13.554;2024-03-17T10:44:51;8.60;87.30
23323;DHT22;11833;52.554;13.554;2024-03-17T10:47:26;9.20;84.20
23323;DHT22;11833;52.554;13.554;2024-03-17T10:49:54;9.80;83.50
23323;DHT22;11833;52.554;13.554;2024-03-17T10:52:22;11.00;97.30
23323;DHT22;11833;52.554;13.554;2024-03-17T10:54:52;10.40;90.40
23323;DHT22;11833;52.554;13.554;2024-03-17T11:00:00;10.40;92.50
23323;DHT22;11833;52.554;13.554;2024-03-17T11:02:31;11.70;93.30
23323;DHT22;11833;52.554;13.554;2024-03-17T11:05:05;12.00;88.00
23323;DHT22;11833;52.554;13.554;2024-03-17T11:07:38;11.20;77.30
23323;DHT22;11833;52.554;13.554;2024-03-17T11:10:09;11.50;88.50
23323;DHT22;11833;52.554;13.554;2024-03-17T11:17:54;11.10;82.50
23323;DHT22;11833;52.554;13.554;2024-03-17T11:20:26;10.00;78.20
23323;DHT22;11833;52.554;13.554;2024-03-17T11:22:57;10.00;78.10
23323;DHT22;11833;52.554;13.554;2024-03-17T11:46:56;11.00;86.80
23323;DHT22;11833;52.554;13.554;2024-03-17T11:49:42;11.00;93.20
23323;DHT22;11833;52.554;13.554;2024-03-17T11:52:15;10.70;87.90
23323;DHT22;11833;52.554;13.554;2024-03-17T11:54:45;10.90;76.90
23323;DHT22;11833;52.554;13.554;2024-03-17T11:57:25;12.30;88.20
23323;DHT22;11833;52.554;13.554;2024-03-17T11:59:55;13.90;92.40
23323;DHT22;11833;52.554;13.554;2024-03-17T12:02:27;13.70;64.70
23323;DHT22;11833;52.554;13.554;2024-03-17T12:05:10;12.80;67.10
23323;DHT22;11833;52.554;13.554;2024-03-17T12:07:42;11.00;65.50
23323;DHT22;11833;52.554;13.554;2024-03-17T12:10:11;10.60;72.80
23323;DHT22;11833;52.554;13.554;2024-03-17T12:12:39;10.50;71.80
23323;DHT22;11833;52.554;13.554;2024-03-17T12:15:19;11.10;74.50
23323;DHT22;11833;52.554;13.554;2024-03-17T12:17:52;11.00;71.90
23323;DHT22;11833;52.554;13.554;2024-03-17T12:20:19;11.10;83.00
23323;DHT22;11833;52.554;13.554;2024-03-17T12:22:47;11.30;77.30
23323;DHT22;11833;52.554;13.554;2024-03-17T12:25:18;11.30;68.70
23323;DHT22;11833;52.554;13.554;2024-03-17T12:27:46;11.00;65.90
23323;DHT22;11833;52.554;13.554;2024-03-17T12:30:14;12.50;70.00
23323;DHT22;11833;52.554;13.554;2024-03-17T12:32:40;13.90;66.90
23323;DHT22;11833;52.554;13.554;2024-03-17T12:35:13;12.50;64.70
23323;DHT22;11833;52.554;13.554;2024-03-17T12:37:44;12.20;62.70
23323;DHT22;11833;52.554;13.554;2024-03-17T12:40:23;12.50;69.50
23323;DHT22;11833;52.554;13.554;2024-03-17T12:42:50;12.60;68.30
23323;DHT22;11833;52.554;13.554;2024-03-17T12:45:20;12.70;61.40
23323;DHT22;11833;52.554;13.554;2024-03-17T12:47:50;12.60;58.70
23323;DHT22;11833;52.554;13.554;2024-03-17T12:50:17;12.40;69.70
23323;DHT22;11833;52.554;13.554;2024-03-17T12:53:03;13.10;88.70
23323;DHT22;11833;52.554;13.554;2024-03-17T12:55:29;13.40;78.00
23323;DHT22;11833;52.554;13.554;2024-03-17T12:58:14;14.20;73.80
23323;DHT22;11833;52.554;13.554;2024-03-17T13:01:05;14.00;70.90
23323;DHT22;11833;52.554;13.554;2024-03-17T13:03:36;14.00;59.90
23323;DHT22;11833;52.554;13.554;2024-03-17T13:06:05;13.70;59.70
23323;DHT22;11833;52.554;13.554;2024-03-17T13:08:35;13.20;60.60
23323;DHT22;11833;52.554;13.554;2024-03-17T13:11:01;12.60;68.40
23323;DHT22;11833;52.554;13.554;2024-03-17T13:13:30;12.20;66.20
23323;DHT22;11833;52.554;13.554;2024-03-17T13:15:56;11.80;76.00
23323;DHT22;11833;52.554;13.554;2024-03-17T13:18:21;11.60;69.70
23323;DHT22;11833;52.554;13.554;2024-03-17T13:20:48;11.40;67.80
23323;DHT22;11833;52.554;13.554;2024-03-17T13:23:19;11.50;66.60
23323;DHT22;11833;52.554;13.554;2024-03-17T13:25:47;11.90;84.80
23323;DHT22;11833;52.554;13.554;2024-03-17T13:28:13;12.30;64.90
23323;DHT22;11833;52.554;13.554;2024-03-17T13:30:40;13.40;66.70
23323;DHT22;11833;52.554;13.554;2024-03-17T13:33:07;14.50;65.10
23323;DHT22;11833;52.554;13.554;2024-03-17T13:35:37;13.80;73.20
23323;DHT22;11833;52.554;13.554;2024-03-17T13:38:06;13.60;80.80
23323;DHT22;11833;52.554;13.554;2024-03-17T13:40:36;13.10;82.20
23323;DHT22;11833;52.554;13.554;2024-03-17T13:43:03;12.10;62.40
23323;DHT22;11833;52.554;13.554;2024-03-17T13:45:37;13.20;71.40
23323;DHT22;11833;52.554;13.554;2024-03-17T13:48:04;13.90;70.50
23323;DHT22;11833;52.554;13.554;2024-03-17T13:50:31;14.40;69.60
23323;DHT22;11833;52.554;13.554;2024-03-17T13:52:57;15.60;79.70
23323;DHT22;11833;52.554;13.554;2024-03-17T13:55:24;16.20;60.70
23323;DHT22;11833;52.554;13.554;2024-03-17T13:57:52;15.40;63.50
23323;DHT22;11833;52.554;13.554;2024-03-17T14:00:23;16.20;69.60
23323;DHT22;11833;52.554;13.554;2024-03-17T14:02:51;16.70;65.50
23323;DHT22;11833;52.554;13.554;2024-03-17T14:05:20;16.90;68.90
23323;DHT22;11833;52.554;13.554;2024-03-17T14:07:47;16.90;54.10
23323;DHT22;11833;52.554;13.554;2024-03-17T14:10:15;17.50;70.20
23323;DHT22;11833;52.554;13.554;2024-03-17T14:12:42;17.70;55.20
23323;DHT22;11833;52.554;13.554;2024-03-17T14:15:09;16.60;53.40
23323;DHT22;11833;52.554;13.554;2024-03-17T14:17:39;16.40;60.80
23323;DHT22;11833;52.554;13.554;2024-03-17T14:20:06;15.80;58.90
23323;DHT22;11833;52.554;13.554;2024-03-17T14:22:42;16.50;53.70
23323;DHT22;11833;52.554;13.554;2024-03-17T14:25:10;17.20;59.40
23323;DHT22;11833;52.554;13.554;2024-03-17T14:27:40;16.80;69.40
23323;DHT22;11833;52.554;13.554;2024-03-17T14:30:06;17.30;72.10
23323;DHT22;11833;52.554;13.554;2024-03-17T14:32:33;18.30;58.00
23323;DHT22;11833;52.554;13.554;2024-03-17T14:34:59;18.50;56.30
23323;DHT22;11833;52.554;13.554;2024-03-17T14:37:25;19.40;63.10
23323;DHT22;11833;52.554;13.554;2024-03-17T14:39:51;17.80;53.30
23323;DHT22;11833;52.554;13.554;2024-03-17T14:42:18;17.50;60.30
23323;DHT22;11833;52.554;13.554;2024-03-17T14:44:45;17.90;62.10
23323;DHT22;11833;52.554;13.554;2024-03-17T14:47:12;17.90;51.60
23323;DHT22;11833;52.554;13.554;2024-03-17T14:49:38;17.90;55.80
23323;DHT22;11833;52.554;13.554;2024-03-17T14:52:04;18.80;55.30
23323;DHT22;11833;52.554;13.554;2024-03-17T14:54:31;18.10;55.00
23323;DHT22;11833;52.554;13.554;2024-03-17T14:56:57;18.20;51.00
23323;DHT22;11833;52.554;13.554;2024-03-17T14:59:22;18.00;47.40
23323;DHT22;11833;52.554;13.554;2024-03-17T15:01:48;18.50;47.10
23323;DHT22;11833;52.554;13.554;2024-03-17T15:04:14;19.40;46.50
23323;DHT22;11833;52.554;13.554;2024-03-17T15:06:41;19.00;52.90
23323;DHT22;11833;52.554;13.554;2024-03-17T15:09:08;17.80;48.20
23323;DHT22;11833;52.554;13.554;2024-03-17T15:11:34;18.00;55.30
23323;DHT22;11833;52.554;13.554;2024-03-17T15:14:00;18.10;52.00
23323;DHT22;11833;52.554;13.554;2024-03-17T15:16:26;18.50;53.50
23323;DHT22;11833;52.554;13.554;2024-03-17T15:18:52;19.00;49.20
23323;DHT22;11833;52.554;13.554;2024-03-17T15:21:19;19.50;53.90
23323;DHT22;11833;52.554;13.554;2024-03-17T15:23:46;19.50;49.60
23323;DHT22;11833;52.554;13.554;2024-03-17T15:26:11;18.30;46.80
23323;DHT22;11833;52.554;13.554;2024-03-17T15:28:42;18.80;45.90
23323;DHT22;11833;52.554;13.554;2024-03-17T15:31:10;19.10;48.50
23323;DHT22;11833;52.554;13.554;2024-03-17T15:33:37;18.80;58.50
23323;DHT22;11833;52.554;13.554;2024-03-17T15:36:07;18.10;46.00
23323;DHT22;11833;52.554;13.554;2024-03-17T15:38:37;17.90;53.00
23323;DHT22;11833;52.554;13.554;2024-03-17T15:41:07;17.00;46.10
23323;DHT22;11833;52.554;13.554;2024-03-17T15:43:37;16.50;48.50
23323;DHT22;11833;52.554;13.554;2024-03-17T15:46:08;16.70;47.00
23323;DHT22;11833;52.554;13.554;2024-03-17T15:48:36;17.70;47.60
23323;DHT22;11833;52.554;13.554;2024-03-17T15:51:03;18.30;44.20
23323;DHT22;11833;52.554;13.554;2024-03-17T15:53:29;18.90;43.90
23323;DHT22;11833;52.554;13.554;2024-03-17T15:55:59;19.90;43.40
23323;DHT22;11833;52.554;13.554;2024-03-17T15:58:30;20.40;44.20
23323;DHT22;11833;52.554;13.554;2024-03-17T16:00:57;20.40;41.40
23323;DHT22;11833;52.554;13.554;2024-03-17T16:03:31;20.60;41.30
23323;DHT22;11833;52.554;13.554;2024-03-17T16:06:07;19.80;42.40